sensor_id;sensor_type;location;lat;lon;timestamp;P1;durP1;ratioP1;P2;durP2;ratioP2
11141;SDS011;5625;50.122;19.864;2024-02-14T00:00:31;31.73;;;21.90;;
11141;SDS011;5625;50.122;19.864;2024-02-14T00:03:00;31.70;;;22.23;;
11141;SDS011;5625;50.122;19.864;2024-02-14T00:05:29;33.77;;;22.63;;
11141;SDS011;5625;50.122;19.864;2024-02-14T00:07:57;29.07;;;21.57;;
11141;SDS011;5625;50.122;19.864;2024-02-14T00:10:26;30.47;;;22.47;;
11141;SDS011;5625;50.122;19.864;2024-02-14T00:12:54;31.07;;;22.07;;
11141;SDS011;5625;50.122;19.864;2024-02-14T00:15:22;33.10;;;23.03;;
11141;SDS011;5625;50.122;19.864;2024-02-14T00:17:52;35.03;;;22.60;;
11141;SDS011;5625;50.122;19.864;2024-02-14T00:20:22;33.77;;;23.50;;
11141;SDS011;5625;50.122;19.864;2024-02-14T00:22:51;35.03;;;24.37;;
11141;SDS011;5625;50.122;19.864;2024-02-14T00:25:19;36.53;;;24.17;;
11141;SDS011;5625;50.122;19.864;2024-02-14T00:27:47;32.50;;;22.77;;
11141;SDS011;5625;50.122;19.864;2024-02-14T00:30:15;32.83;;;23.17;;
11141;SDS011;5625;50.122;19.864;2024-02-14T00:32:44;35.43;;;23.60;;
11141;SDS011;5625;50.122;19.864;2024-02-14T00:35:12;35.40;;;23.07;;
11141;SDS011;5625;50.122;19.864;2024-02-14T00:37:42;36.87;;;24.60;;
11141;SDS011;5625;50.122;19.864;2024-02-14T00:40:11;34.83;;;23.60;;
11141;SDS011;5625;50.122;19.864;2024-02-14T00:42:39;35.43;;;24.17;;
11141;SDS011;5625;50.122;19.864;2024-02-14T00:45:08;32.77;;;23.10;;
11141;SDS011;5625;50.122;19.864;2024-02-14T00:47:36;32.00;;;22.50;;
11141;SDS011;5625;50.122;19.864;2024-02-14T00:50:06;34.63;;;23.80;;
11141;SDS011;5625;50.122;19.864;2024-02-14T00:52:35;34.57;;;23.17;;
11141;SDS011;5625;50.122;19.864;2024-02-14T00:55:04;37.57;;;25.20;;
11141;SDS011;5625;50.122;19.864;2024-02-14T00:57:33;37.27;;;25.00;;
11141;SDS011;5625;50.122;19.864;2024-02-14T01:00:01;33.70;;;24.60;;
11141;SDS011;5625;50.122;19.864;2024-02-14T01:02:32;38.30;;;25.83;;
11141;SDS011;5625;50.122;19.864;2024-02-14T01:05:00;36.17;;;25.63;;
11141;SDS011;5625;50.122;19.864;2024-02-14T01:07:33;36.27;;;24.70;;
11141;SDS011;5625;50.122;19.864;2024-02-14T01:10:01;37.10;;;26.37;;
11141;SDS011;5625;50.122;19.864;2024-02-14T01:12:31;37.80;;;27.63;;
11141;SDS011;5625;50.122;19.864;2024-02-14T01:14:59;41.47;;;27.60;;
11141;SDS011;5625;50.122;19.864;2024-02-14T01:17:27;39.70;;;27.53;;
11141;SDS011;5625;50.122;19.864;2024-02-14T01:19:56;38.10;;;27.40;;
11141;SDS011;5625;50.122;19.864;2024-02-14T01:22:24;39.27;;;27.87;;
11141;SDS011;5625;50.122;19.864;2024-02-14T01:24:53;37.30;;;26.93;;
11141;SDS011;5625;50.122;19.864;2024-02-14T01:27:21;41.60;;;28.23;;
11141;SDS011;5625;50.122;19.864;2024-02-14T01:29:52;38.13;;;26.73;;
11141;SDS011;5625;50.122;19.864;2024-02-14T01:32:21;38.37;;;26.67;;
11141;SDS011;5625;50.122;19.864;2024-02-14T01:34:50;37.50;;;27.17;;
11141;SDS011;5625;50.122;19.864;2024-02-14T01:37:19;35.77;;;25.70;;
11141;SDS011;5625;50.122;19.864;2024-02-14T01:39:48;37.20;;;26.03;;
11141;SDS011;5625;50.122;19.864;2024-02-14T01:42:16;36.23;;;27.20;;
11141;SDS011;5625;50.122;19.864;2024-02-14T01:44:45;36.37;;;26.00;;
11141;SDS011;5625;50.122;19.864;2024-02-14T01:47:16;39.93;;;26.87;;
11141;SDS011;5625;50.122;19.864;2024-02-14T01:49:46;36.00;;;26.17;;
11141;SDS011;5625;50.122;19.864;2024-02-14T01:52:14;41.87;;;27.83;;
11141;SDS011;5625;50.122;19.864;2024-02-14T01:54:43;37.93;;;27.53;;
11141;SDS011;5625;50.122;19.864;2024-02-14T01:57:11;37.43;;;26.80;;
11141;SDS011;5625;50.122;19.864;2024-02-14T01:59:39;39.83;;;26.07;;
11141;SDS011;5625;50.122;19.864;2024-02-14T02:02:07;35.87;;;25.57;;
11141;SDS011;5625;50.122;19.864;2024-02-14T02:04:37;37.60;;;26.37;;
11141;SDS011;5625;50.122;19.864;2024-02-14T02:07:05;39.30;;;27.07;;
11141;SDS011;5625;50.122;19.864;2024-02-14T02:09:33;39.73;;;27.23;;
11141;SDS011;5625;50.122;19.864;2024-02-14T02:12:02;39.70;;;27.20;;
11141;SDS011;5625;50.122;19.864;2024-02-14T02:14:34;36.57;;;26.40;;
11141;SDS011;5625;50.122;19.864;2024-02-14T02:17:02;38.70;;;27.00;;
11141;SDS011;5625;50.122;19.864;2024-02-14T02:19:34;41.30;;;28.13;;
11141;SDS011;5625;50.122;19.864;2024-02-14T02:22:04;39.63;;;27.07;;
11141;SDS011;5625;50.122;19.864;2024-02-14T02:24:33;38.67;;;27.77;;
11141;SDS011;5625;50.122;19.864;2024-02-14T02:27:02;41.57;;;27.47;;
11141;SDS011;5625;50.122;19.864;2024-02-14T02:29:33;39.83;;;27.23;;
11141;SDS011;5625;50.122;19.864;2024-02-14T02:32:04;40.17;;;26.13;;
11141;SDS011;5625;50.122;19.864;2024-02-14T02:34:35;40.17;;;27.80;;
11141;SDS011;5625;50.122;19.864;2024-02-14T02:37:05;41.07;;;28.07;;
11141;SDS011;5625;50.122;19.864;2024-02-14T02:39:37;38.13;;;26.43;;
11141;SDS011;5625;50.122;19.864;2024-02-14T02:42:05;39.83;;;27.57;;
11141;SDS011;5625;50.122;19.864;2024-02-14T02:44:34;38.03;;;26.57;;
11141;SDS011;5625;50.122;19.864;2024-02-14T02:47:04;39.47;;;26.90;;
11141;SDS011;5625;50.122;19.864;2024-02-14T02:49:32;36.70;;;25.93;;
11141;SDS011;5625;50.122;19.864;2024-02-14T02:52:02;39.53;;;27.60;;
11141;SDS011;5625;50.122;19.864;2024-02-14T02:54:31;39.20;;;26.70;;
11141;SDS011;5625;50.122;19.864;2024-02-14T02:57:01;34.70;;;24.50;;
11141;SDS011;5625;50.122;19.864;2024-02-14T02:59:29;36.03;;;24.63;;
11141;SDS011;5625;50.122;19.864;2024-02-14T03:01:58;33.67;;;23.53;;
11141;SDS011;5625;50.122;19.864;2024-02-14T03:04:27;33.87;;;23.17;;
11141;SDS011;5625;50.122;19.864;2024-02-14T03:07:14;34.43;;;23.60;;
11141;SDS011;5625;50.122;19.864;2024-02-14T03:09:42;34.27;;;24.27;;
11141;SDS011;5625;50.122;19.864;2024-02-14T03:12:12;35.17;;;24.07;;
11141;SDS011;5625;50.122;19.864;2024-02-14T03:14:43;35.40;;;23.10;;
11141;SDS011;5625;50.122;19.864;2024-02-14T03:17:11;34.83;;;23.80;;
11141;SDS011;5625;50.122;19.864;2024-02-14T03:19:39;34.97;;;23.87;;
11141;SDS011;5625;50.122;19.864;2024-02-14T03:22:10;32.83;;;23.00;;
11141;SDS011;5625;50.122;19.864;2024-02-14T03:24:38;35.00;;;23.17;;
11141;SDS011;5625;50.122;19.864;2024-02-14T03:27:14;31.47;;;22.53;;
11141;SDS011;5625;50.122;19.864;2024-02-14T03:29:43;35.17;;;23.57;;
11141;SDS011;5625;50.122;19.864;2024-02-14T03:32:14;30.10;;;21.40;;
11141;SDS011;5625;50.122;19.864;2024-02-14T03:34:42;31.27;;;22.77;;
11141;SDS011;5625;50.122;19.864;2024-02-14T03:37:10;34.10;;;21.87;;
11141;SDS011;5625;50.122;19.864;2024-02-14T03:39:38;31.87;;;23.73;;
11141;SDS011;5625;50.122;19.864;2024-02-14T03:42:06;34.50;;;23.00;;
11141;SDS011;5625;50.122;19.864;2024-02-14T03:44:37;35.23;;;22.73;;
11141;SDS011;5625;50.122;19.864;2024-02-14T03:47:06;33.47;;;22.33;;
11141;SDS011;5625;50.122;19.864;2024-02-14T03:49:35;30.97;;;21.57;;
11141;SDS011;5625;50.122;19.864;2024-02-14T03:52:03;30.10;;;21.90;;
11141;SDS011;5625;50.122;19.864;2024-02-14T03:54:36;31.57;;;21.73;;
11141;SDS011;5625;50.122;19.864;2024-02-14T03:57:04;30.47;;;21.10;;
11141;SDS011;5625;50.122;19.864;2024-02-14T03:59:39;31.97;;;21.97;;
11141;SDS011;5625;50.122;19.864;2024-02-14T04:02:07;32.63;;;23.17;;
11141;SDS011;5625;50.122;19.864;2024-02-14T04:04:36;32.17;;;21.70;;
11141;SDS011;5625;50.122;19.864;2024-02-14T04:07:06;31.17;;;22.27;;
11141;SDS011;5625;50.122;19.864;2024-02-14T04:09:36;33.23;;;21.47;;
11141;SDS011;5625;50.122;19.864;2024-02-14T04:12:04;35.07;;;22.40;;
11141;SDS011;5625;50.122;19.864;2024-02-14T04:14:33;33.43;;;22.50;;
11141;SDS011;5625;50.122;19.864;2024-02-14T04:17:03;32.00;;;21.37;;
11141;SDS011;5625;50.122;19.864;2024-02-14T04:19:34;31.60;;;23.30;;
11141;SDS011;5625;50.122;19.864;2024-02-14T04:22:02;36.33;;;24.07;;
11141;SDS011;5625;50.122;19.864;2024-02-14T04:24:32;35.87;;;24.83;;
11141;SDS011;5625;50.122;19.864;2024-02-14T04:27:01;36.93;;;25.30;;
11141;SDS011;5625;50.122;19.864;2024-02-14T04:29:30;40.20;;;28.67;;
11141;SDS011;5625;50.122;19.864;2024-02-14T04:32:00;41.40;;;27.83;;
11141;SDS011;5625;50.122;19.864;2024-02-14T04:34:30;38.03;;;28.20;;
11141;SDS011;5625;50.122;19.864;2024-02-14T04:36:59;41.10;;;28.77;;
11141;SDS011;5625;50.122;19.864;2024-02-14T04:39:29;39.67;;;29.00;;
11141;SDS011;5625;50.122;19.864;2024-02-14T04:41:57;40.10;;;29.70;;
11141;SDS011;5625;50.122;19.864;2024-02-14T04:44:28;43.43;;;28.80;;
11141;SDS011;5625;50.122;19.864;2024-02-14T04:46:56;40.03;;;28.77;;
11141;SDS011;5625;50.122;19.864;2024-02-14T04:49:26;39.77;;;28.80;;
11141;SDS011;5625;50.122;19.864;2024-02-14T04:51:57;40.93;;;28.57;;
11141;SDS011;5625;50.122;19.864;2024-02-14T04:54:28;39.97;;;28.20;;
11141;SDS011;5625;50.122;19.864;2024-02-14T04:56:56;39.17;;;28.70;;
11141;SDS011;5625;50.122;19.864;2024-02-14T04:59:28;45.00;;;28.90;;
11141;SDS011;5625;50.122;19.864;2024-02-14T05:01:56;41.07;;;27.30;;
11141;SDS011;5625;50.122;19.864;2024-02-14T05:04:25;36.60;;;27.80;;
11141;SDS011;5625;50.122;19.864;2024-02-14T05:06:54;41.13;;;29.07;;
11141;SDS011;5625;50.122;19.864;2024-02-14T05:09:26;36.97;;;27.10;;
11141;SDS011;5625;50.122;19.864;2024-02-14T05:11:54;38.20;;;26.30;;
11141;SDS011;5625;50.122;19.864;2024-02-14T05:14:23;37.37;;;26.33;;
11141;SDS011;5625;50.122;19.864;2024-02-14T05:16:51;36.47;;;25.63;;
11141;SDS011;5625;50.122;19.864;2024-02-14T05:19:19;35.63;;;25.67;;
11141;SDS011;5625;50.122;19.864;2024-02-14T05:21:48;35.50;;;25.53;;
11141;SDS011;5625;50.122;19.864;2024-02-14T05:24:16;39.13;;;26.33;;
11141;SDS011;5625;50.122;19.864;2024-02-14T05:26:47;38.37;;;24.80;;
11141;SDS011;5625;50.122;19.864;2024-02-14T05:29:15;37.27;;;25.43;;
11141;SDS011;5625;50.122;19.864;2024-02-14T05:31:45;36.57;;;25.50;;
11141;SDS011;5625;50.122;19.864;2024-02-14T05:34:15;37.30;;;26.07;;
11141;SDS011;5625;50.122;19.864;2024-02-14T05:36:44;42.20;;;26.13;;
11141;SDS011;5625;50.122;19.864;2024-02-14T05:39:13;38.07;;;24.63;;
11141;SDS011;5625;50.122;19.864;2024-02-14T05:41:42;33.10;;;23.17;;
11141;SDS011;5625;50.122;19.864;2024-02-14T05:44:12;32.80;;;23.63;;
11141;SDS011;5625;50.122;19.864;2024-02-14T05:46:40;33.77;;;22.87;;
11141;SDS011;5625;50.122;19.864;2024-02-14T05:49:09;32.77;;;22.57;;
11141;SDS011;5625;50.122;19.864;2024-02-14T05:51:37;31.77;;;21.67;;
11141;SDS011;5625;50.122;19.864;2024-02-14T05:54:05;32.53;;;20.93;;
11141;SDS011;5625;50.122;19.864;2024-02-14T05:56:34;33.00;;;21.43;;
11141;SDS011;5625;50.122;19.864;2024-02-14T05:59:03;29.23;;;21.30;;
11141;SDS011;5625;50.122;19.864;2024-02-14T06:01:32;26.07;;;20.43;;
11141;SDS011;5625;50.122;19.864;2024-02-14T06:04:00;31.63;;;21.70;;
11141;SDS011;5625;50.122;19.864;2024-02-14T06:06:29;27.67;;;20.07;;
11141;SDS011;5625;50.122;19.864;2024-02-14T06:08:57;30.77;;;20.40;;
11141;SDS011;5625;50.122;19.864;2024-02-14T06:11:25;28.90;;;19.43;;
11141;SDS011;5625;50.122;19.864;2024-02-14T06:13:53;28.97;;;20.27;;
11141;SDS011;5625;50.122;19.864;2024-02-14T06:16:22;26.87;;;19.17;;
11141;SDS011;5625;50.122;19.864;2024-02-14T06:18:51;31.33;;;21.13;;
11141;SDS011;5625;50.122;19.864;2024-02-14T06:21:20;30.40;;;19.97;;
11141;SDS011;5625;50.122;19.864;2024-02-14T06:23:48;26.73;;;19.10;;
11141;SDS011;5625;50.122;19.864;2024-02-14T06:26:16;28.53;;;19.73;;
11141;SDS011;5625;50.122;19.864;2024-02-14T06:28:45;29.70;;;19.53;;
11141;SDS011;5625;50.122;19.864;2024-02-14T06:31:13;29.73;;;19.23;;
11141;SDS011;5625;50.122;19.864;2024-02-14T06:33:41;27.77;;;19.03;;
11141;SDS011;5625;50.122;19.864;2024-02-14T06:36:12;26.47;;;18.33;;
11141;SDS011;5625;50.122;19.864;2024-02-14T06:38:42;26.57;;;18.90;;
11141;SDS011;5625;50.122;19.864;2024-02-14T06:41:12;31.40;;;20.93;;
11141;SDS011;5625;50.122;19.864;2024-02-14T06:43:41;35.20;;;21.70;;
11141;SDS011;5625;50.122;19.864;2024-02-14T06:46:09;35.23;;;21.77;;
11141;SDS011;5625;50.122;19.864;2024-02-14T06:48:37;34.17;;;21.43;;
11141;SDS011;5625;50.122;19.864;2024-02-14T06:51:07;36.30;;;25.10;;
11141;SDS011;5625;50.122;19.864;2024-02-14T06:53:37;34.53;;;22.20;;
11141;SDS011;5625;50.122;19.864;2024-02-14T06:56:05;38.00;;;23.97;;
11141;SDS011;5625;50.122;19.864;2024-02-14T06:58:34;37.57;;;23.20;;
11141;SDS011;5625;50.122;19.864;2024-02-14T07:01:02;34.43;;;22.63;;
11141;SDS011;5625;50.122;19.864;2024-02-14T07:03:31;32.00;;;22.23;;
11141;SDS011;5625;50.122;19.864;2024-02-14T07:05:59;34.70;;;22.17;;
11141;SDS011;5625;50.122;19.864;2024-02-14T07:08:27;36.07;;;22.67;;
11141;SDS011;5625;50.122;19.864;2024-02-14T07:10:57;32.93;;;22.00;;
11141;SDS011;5625;50.122;19.864;2024-02-14T07:13:25;36.50;;;24.00;;
11141;SDS011;5625;50.122;19.864;2024-02-14T07:15:53;33.33;;;23.03;;
11141;SDS011;5625;50.122;19.864;2024-02-14T07:18:21;32.27;;;21.67;;
11141;SDS011;5625;50.122;19.864;2024-02-14T07:20:52;35.33;;;22.77;;
11141;SDS011;5625;50.122;19.864;2024-02-14T07:23:20;28.03;;;20.37;;
11141;SDS011;5625;50.122;19.864;2024-02-14T07:25:49;29.87;;;20.43;;
11141;SDS011;5625;50.122;19.864;2024-02-14T07:28:18;26.70;;;19.93;;
11141;SDS011;5625;50.122;19.864;2024-02-14T07:30:47;29.20;;;19.97;;
11141;SDS011;5625;50.122;19.864;2024-02-14T07:33:15;28.50;;;19.43;;
11141;SDS011;5625;50.122;19.864;2024-02-14T07:35:43;29.70;;;19.50;;
11141;SDS011;5625;50.122;19.864;2024-02-14T07:38:13;27.67;;;18.60;;
11141;SDS011;5625;50.122;19.864;2024-02-14T07:40:43;24.17;;;17.83;;
11141;SDS011;5625;50.122;19.864;2024-02-14T07:43:11;24.20;;;18.13;;
11141;SDS011;5625;50.122;19.864;2024-02-14T07:45:40;22.87;;;17.03;;
11141;SDS011;5625;50.122;19.864;2024-02-14T07:48:08;24.73;;;16.70;;
11141;SDS011;5625;50.122;19.864;2024-02-14T07:50:37;21.60;;;15.93;;
11141;SDS011;5625;50.122;19.864;2024-02-14T07:53:05;22.27;;;15.30;;
11141;SDS011;5625;50.122;19.864;2024-02-14T07:55:33;20.77;;;15.17;;
11141;SDS011;5625;50.122;19.864;2024-02-14T07:58:02;20.27;;;16.70;;
11141;SDS011;5625;50.122;19.864;2024-02-14T08:00:30;21.33;;;16.00;;
11141;SDS011;5625;50.122;19.864;2024-02-14T08:03:00;22.07;;;16.47;;
11141;SDS011;5625;50.122;19.864;2024-02-14T08:05:32;26.07;;;17.37;;
11141;SDS011;5625;50.122;19.864;2024-02-14T08:08:00;23.87;;;17.17;;
11141;SDS011;5625;50.122;19.864;2024-02-14T08:10:28;24.57;;;18.07;;
11141;SDS011;5625;50.122;19.864;2024-02-14T08:12:57;24.73;;;17.60;;
11141;SDS011;5625;50.122;19.864;2024-02-14T08:15:29;25.20;;;17.70;;
11141;SDS011;5625;50.122;19.864;2024-02-14T08:17:57;25.10;;;19.00;;
11141;SDS011;5625;50.122;19.864;2024-02-14T08:20:36;25.00;;;19.17;;
11141;SDS011;5625;50.122;19.864;2024-02-14T08:23:04;28.17;;;18.37;;
11141;SDS011;5625;50.122;19.864;2024-02-14T08:25:33;26.03;;;18.40;;
11141;SDS011;5625;50.122;19.864;2024-02-14T08:28:01;25.87;;;18.97;;
11141;SDS011;5625;50.122;19.864;2024-02-14T08:30:30;25.47;;;20.50;;
11141;SDS011;5625;50.122;19.864;2024-02-14T08:32:58;29.13;;;21.10;;
11141;SDS011;5625;50.122;19.864;2024-02-14T08:35:27;25.03;;;18.40;;
11141;SDS011;5625;50.122;19.864;2024-02-14T08:37:56;22.50;;;17.80;;
11141;SDS011;5625;50.122;19.864;2024-02-14T08:40:25;24.10;;;18.30;;
11141;SDS011;5625;50.122;19.864;2024-02-14T08:42:53;23.57;;;18.43;;
11141;SDS011;5625;50.122;19.864;2024-02-14T08:45:21;22.47;;;17.50;;
11141;SDS011;5625;50.122;19.864;2024-02-14T08:47:49;25.93;;;18.57;;
11141;SDS011;5625;50.122;19.864;2024-02-14T08:50:18;23.97;;;17.70;;
11141;SDS011;5625;50.122;19.864;2024-02-14T08:52:46;21.63;;;16.97;;
11141;SDS011;5625;50.122;19.864;2024-02-14T08:55:16;21.53;;;17.33;;
11141;SDS011;5625;50.122;19.864;2024-02-14T08:57:47;22.30;;;17.03;;
11141;SDS011;5625;50.122;19.864;2024-02-14T09:00:16;21.57;;;17.40;;
11141;SDS011;5625;50.122;19.864;2024-02-14T09:02:46;21.63;;;15.93;;
11141;SDS011;5625;50.122;19.864;2024-02-14T09:05:15;20.77;;;15.97;;
11141;SDS011;5625;50.122;19.864;2024-02-14T09:07:45;21.10;;;16.60;;
11141;SDS011;5625;50.122;19.864;2024-02-14T09:10:14;20.13;;;16.17;;
11141;SDS011;5625;50.122;19.864;2024-02-14T09:12:43;20.90;;;16.13;;
11141;SDS011;5625;50.122;19.864;2024-02-14T09:15:11;21.17;;;15.00;;
11141;SDS011;5625;50.122;19.864;2024-02-14T09:17:40;21.23;;;15.57;;
11141;SDS011;5625;50.122;19.864;2024-02-14T09:20:09;20.23;;;13.60;;
11141;SDS011;5625;50.122;19.864;2024-02-14T09:22:40;18.30;;;11.60;;
11141;SDS011;5625;50.122;19.864;2024-02-14T09:25:09;14.63;;;9.90;;
11141;SDS011;5625;50.122;19.864;2024-02-14T09:27:38;11.10;;;8.77;;
11141;SDS011;5625;50.122;19.864;2024-02-14T09:30:07;10.93;;;8.90;;
11141;SDS011;5625;50.122;19.864;2024-02-14T09:32:53;9.60;;;8.20;;
11141;SDS011;5625;50.122;19.864;2024-02-14T09:35:21;8.93;;;5.80;;
11141;SDS011;5625;50.122;19.864;2024-02-14T09:37:50;7.97;;;5.40;;
11141;SDS011;5625;50.122;19.864;2024-02-14T09:40:18;8.43;;;4.67;;
11141;SDS011;5625;50.122;19.864;2024-02-14T09:42:50;4.43;;;3.33;;
11141;SDS011;5625;50.122;19.864;2024-02-14T09:45:22;4.40;;;3.13;;
11141;SDS011;5625;50.122;19.864;2024-02-14T09:47:52;3.93;;;3.57;;
11141;SDS011;5625;50.122;19.864;2024-02-14T09:50:21;3.53;;;2.90;;
11141;SDS011;5625;50.122;19.864;2024-02-14T09:52:51;2.63;;;2.30;;
11141;SDS011;5625;50.122;19.864;2024-02-14T09:55:22;3.53;;;2.50;;
11141;SDS011;5625;50.122;19.864;2024-02-14T09:57:53;4.30;;;2.50;;
11141;SDS011;5625;50.122;19.864;2024-02-14T10:00:22;3.30;;;2.27;;
11141;SDS011;5625;50.122;19.864;2024-02-14T10:02:51;2.57;;;1.90;;
11141;SDS011;5625;50.122;19.864;2024-02-14T10:05:19;3.07;;;2.10;;
11141;SDS011;5625;50.122;19.864;2024-02-14T10:07:47;3.53;;;2.53;;
11141;SDS011;5625;50.122;19.864;2024-02-14T10:10:16;3.73;;;2.60;;
11141;SDS011;5625;50.122;19.864;2024-02-14T10:12:44;2.90;;;2.00;;
11141;SDS011;5625;50.122;19.864;2024-02-14T10:15:13;3.20;;;2.10;;
11141;SDS011;5625;50.122;19.864;2024-02-14T10:17:42;2.57;;;2.37;;
11141;SDS011;5625;50.122;19.864;2024-02-14T10:20:11;4.40;;;3.07;;
11141;SDS011;5625;50.122;19.864;2024-02-14T10:22:44;4.70;;;2.80;;
11141;SDS011;5625;50.122;19.864;2024-02-14T10:25:13;4.33;;;3.17;;
11141;SDS011;5625;50.122;19.864;2024-02-14T10:27:41;5.63;;;3.50;;
11141;SDS011;5625;50.122;19.864;2024-02-14T10:30:09;4.57;;;3.13;;
11141;SDS011;5625;50.122;19.864;2024-02-14T10:32:39;4.33;;;3.47;;
11141;SDS011;5625;50.122;19.864;2024-02-14T10:35:14;5.57;;;3.30;;
11141;SDS011;5625;50.122;19.864;2024-02-14T10:37:43;5.50;;;3.07;;
11141;SDS011;5625;50.122;19.864;2024-02-14T10:40:12;3.87;;;3.20;;
11141;SDS011;5625;50.122;19.864;2024-02-14T10:42:40;3.63;;;3.27;;
11141;SDS011;5625;50.122;19.864;2024-02-14T10:45:08;4.60;;;3.17;;
11141;SDS011;5625;50.122;19.864;2024-02-14T10:47:40;4.93;;;2.83;;
11141;SDS011;5625;50.122;19.864;2024-02-14T10:50:14;4.17;;;3.00;;
11141;SDS011;5625;50.122;19.864;2024-02-14T10:52:43;6.33;;;2.70;;
11141;SDS011;5625;50.122;19.864;2024-02-14T10:55:15;4.47;;;2.80;;
11141;SDS011;5625;50.122;19.864;2024-02-14T10:57:44;4.53;;;2.90;;
11141;SDS011;5625;50.122;19.864;2024-02-14T11:00:15;3.30;;;3.00;;
11141;SDS011;5625;50.122;19.864;2024-02-14T11:02:46;3.30;;;2.87;;
11141;SDS011;5625;50.122;19.864;2024-02-14T11:05:15;4.40;;;3.00;;
11141;SDS011;5625;50.122;19.864;2024-02-14T11:07:49;4.60;;;3.10;;
11141;SDS011;5625;50.122;19.864;2024-02-14T11:10:21;4.33;;;3.10;;
11141;SDS011;5625;50.122;19.864;2024-02-14T11:12:50;6.73;;;3.33;;
11141;SDS011;5625;50.122;19.864;2024-02-14T11:15:19;5.70;;;3.10;;
11141;SDS011;5625;50.122;19.864;2024-02-14T11:17:50;4.70;;;3.20;;
11141;SDS011;5625;50.122;19.864;2024-02-14T11:20:19;3.80;;;3.27;;
11141;SDS011;5625;50.122;19.864;2024-02-14T11:22:56;4.40;;;3.07;;
11141;SDS011;5625;50.122;19.864;2024-02-14T11:25:29;3.87;;;2.70;;
11141;SDS011;5625;50.122;19.864;2024-02-14T11:27:58;3.77;;;3.00;;
11141;SDS011;5625;50.122;19.864;2024-02-14T11:30:29;3.27;;;2.77;;
11141;SDS011;5625;50.122;19.864;2024-02-14T11:33:15;4.43;;;2.83;;
11141;SDS011;5625;50.122;19.864;2024-02-14T11:35:45;3.93;;;2.70;;
11141;SDS011;5625;50.122;19.864;2024-02-14T11:38:14;6.53;;;3.20;;
11141;SDS011;5625;50.122;19.864;2024-02-14T11:40:42;6.17;;;3.00;;
11141;SDS011;5625;50.122;19.864;2024-02-14T11:43:12;4.77;;;2.80;;
11141;SDS011;5625;50.122;19.864;2024-02-14T11:45:41;4.03;;;3.13;;
11141;SDS011;5625;50.122;19.864;2024-02-14T11:48:10;3.83;;;2.93;;
11141;SDS011;5625;50.122;19.864;2024-02-14T11:50:41;5.13;;;3.13;;
11141;SDS011;5625;50.122;19.864;2024-02-14T11:53:11;4.73;;;3.13;;
11141;SDS011;5625;50.122;19.864;2024-02-14T11:55:41;3.20;;;2.90;;
11141;SDS011;5625;50.122;19.864;2024-02-14T11:58:10;5.07;;;3.23;;
11141;SDS011;5625;50.122;19.864;2024-02-14T12:00:39;4.33;;;3.40;;
11141;SDS011;5625;50.122;19.864;2024-02-14T12:03:09;4.23;;;3.27;;
11141;SDS011;5625;50.122;19.864;2024-02-14T12:05:41;4.10;;;3.70;;
11141;SDS011;5625;50.122;19.864;2024-02-14T12:08:11;4.37;;;3.87;;
11141;SDS011;5625;50.122;19.864;2024-02-14T12:10:41;6.37;;;4.03;;
11141;SDS011;5625;50.122;19.864;2024-02-14T12:13:13;5.23;;;3.97;;
11141;SDS011;5625;50.122;19.864;2024-02-14T12:15:45;4.87;;;4.30;;
11141;SDS011;5625;50.122;19.864;2024-02-14T12:18:15;7.17;;;4.23;;
11141;SDS011;5625;50.122;19.864;2024-02-14T12:20:46;5.27;;;4.10;;
11141;SDS011;5625;50.122;19.864;2024-02-14T12:23:20;4.93;;;4.10;;
11141;SDS011;5625;50.122;19.864;2024-02-14T12:25:48;6.10;;;4.63;;
11141;SDS011;5625;50.122;19.864;2024-02-14T12:28:17;6.27;;;4.43;;
11141;SDS011;5625;50.122;19.864;2024-02-14T12:30:47;7.43;;;4.80;;
11141;SDS011;5625;50.122;19.864;2024-02-14T12:33:16;6.77;;;4.90;;
11141;SDS011;5625;50.122;19.864;2024-02-14T12:35:46;6.47;;;4.50;;
11141;SDS011;5625;50.122;19.864;2024-02-14T12:38:16;6.77;;;5.13;;
11141;SDS011;5625;50.122;19.864;2024-02-14T12:40:46;6.17;;;5.00;;
11141;SDS011;5625;50.122;19.864;2024-02-14T12:43:14;5.90;;;5.13;;
11141;SDS011;5625;50.122;19.864;2024-02-14T12:45:43;9.43;;;5.10;;
11141;SDS011;5625;50.122;19.864;2024-02-14T12:48:12;8.17;;;5.30;;
11141;SDS011;5625;50.122;19.864;2024-02-14T12:50:42;7.00;;;5.37;;
11141;SDS011;5625;50.122;19.864;2024-02-14T12:53:18;5.73;;;5.17;;
11141;SDS011;5625;50.122;19.864;2024-02-14T12:55:47;5.83;;;4.87;;
11141;SDS011;5625;50.122;19.864;2024-02-14T12:58:15;7.80;;;4.30;;
11141;SDS011;5625;50.122;19.864;2024-02-14T13:00:44;5.93;;;4.50;;
11141;SDS011;5625;50.122;19.864;2024-02-14T13:03:13;5.37;;;4.57;;
11141;SDS011;5625;50.122;19.864;2024-02-14T13:05:44;6.83;;;4.40;;
11141;SDS011;5625;50.122;19.864;2024-02-14T13:08:14;4.47;;;3.80;;
11141;SDS011;5625;50.122;19.864;2024-02-14T13:10:44;5.43;;;4.03;;
11141;SDS011;5625;50.122;19.864;2024-02-14T13:13:13;5.53;;;4.10;;
11141;SDS011;5625;50.122;19.864;2024-02-14T13:15:41;6.67;;;4.17;;
11141;SDS011;5625;50.122;19.864;2024-02-14T13:18:11;5.73;;;3.90;;
11141;SDS011;5625;50.122;19.864;2024-02-14T13:20:40;4.93;;;3.73;;
11141;SDS011;5625;50.122;19.864;2024-02-14T13:23:11;5.40;;;3.65;;
11141;SDS011;5625;50.122;19.864;2024-02-14T13:25:41;6.67;;;3.93;;
11141;SDS011;5625;50.122;19.864;2024-02-14T13:28:11;6.53;;;4.13;;
11141;SDS011;5625;50.122;19.864;2024-02-14T13:30:39;4.27;;;3.87;;
11141;SDS011;5625;50.122;19.864;2024-02-14T13:33:07;5.73;;;4.07;;
11141;SDS011;5625;50.122;19.864;2024-02-14T13:35:38;5.20;;;4.03;;
11141;SDS011;5625;50.122;19.864;2024-02-14T13:38:06;7.30;;;4.20;;
11141;SDS011;5625;50.122;19.864;2024-02-14T13:40:35;4.43;;;4.00;;
11141;SDS011;5625;50.122;19.864;2024-02-14T13:43:04;7.33;;;4.30;;
11141;SDS011;5625;50.122;19.864;2024-02-14T13:45:40;8.00;;;4.60;;
11141;SDS011;5625;50.122;19.864;2024-02-14T13:48:13;5.90;;;4.03;;
11141;SDS011;5625;50.122;19.864;2024-02-14T13:50:41;5.50;;;3.93;;
11141;SDS011;5625;50.122;19.864;2024-02-14T13:53:10;4.37;;;3.80;;
11141;SDS011;5625;50.122;19.864;2024-02-14T13:55:38;4.83;;;3.77;;
11141;SDS011;5625;50.122;19.864;2024-02-14T13:58:07;4.47;;;3.60;;
11141;SDS011;5625;50.122;19.864;2024-02-14T14:00:42;6.23;;;4.23;;
11141;SDS011;5625;50.122;19.864;2024-02-14T14:03:11;5.27;;;3.60;;
11141;SDS011;5625;50.122;19.864;2024-02-14T14:05:39;5.60;;;3.97;;
11141;SDS011;5625;50.122;19.864;2024-02-14T14:08:07;7.63;;;4.57;;
11141;SDS011;5625;50.122;19.864;2024-02-14T14:10:36;4.33;;;3.77;;
11141;SDS011;5625;50.122;19.864;2024-02-14T14:13:04;6.07;;;4.40;;
11141;SDS011;5625;50.122;19.864;2024-02-14T14:15:33;8.37;;;4.77;;
11141;SDS011;5625;50.122;19.864;2024-02-14T14:18:02;7.60;;;3.70;;
11141;SDS011;5625;50.122;19.864;2024-02-14T14:20:31;5.07;;;3.70;;
11141;SDS011;5625;50.122;19.864;2024-02-14T14:22:59;4.73;;;3.60;;
11141;SDS011;5625;50.122;19.864;2024-02-14T14:25:30;8.40;;;4.43;;
11141;SDS011;5625;50.122;19.864;2024-02-14T14:27:58;3.97;;;3.47;;
11141;SDS011;5625;50.122;19.864;2024-02-14T14:30:32;5.37;;;3.50;;
11141;SDS011;5625;50.122;19.864;2024-02-14T14:33:00;5.57;;;3.60;;
11141;SDS011;5625;50.122;19.864;2024-02-14T14:35:31;6.47;;;3.47;;
11141;SDS011;5625;50.122;19.864;2024-02-14T14:38:00;6.53;;;3.57;;
11141;SDS011;5625;50.122;19.864;2024-02-14T14:40:29;5.07;;;3.60;;
11141;SDS011;5625;50.122;19.864;2024-02-14T14:42:57;8.43;;;4.80;;